METAR Data
IDs: Format: Raw Decoded Include TAF

Data at: 1002 UTC 18 Jan 2022

KBDU 180955Z AUTO 00000KT 10SM CLR 02/M07 A2981 RMK AO2
KBDU 180935Z AUTO 25003KT 10SM CLR 02/M06 A2982 RMK AO2
KBDU 180915Z AUTO 00000KT 10SM CLR 02/M06 A2982 RMK AO2
KBDU 180855Z AUTO 00000KT 10SM CLR 01/M06 A2982 RMK AO2
KBDU 180835Z AUTO 00000KT 10SM CLR 02/M06 A2982 RMK AO2
KBDU 180815Z AUTO 00000KT 10SM CLR 02/M06 A2983 RMK AO2
KBDU 180755Z AUTO 22003KT 10SM CLR 03/M07 A2983 RMK AO2
KBDU 180735Z AUTO 26004KT 10SM CLR 01/M06 A2984 RMK AO2
KBDU 180715Z AUTO 00000KT 10SM CLR 02/M06 A2985 RMK AO2
KBDU 180655Z AUTO 00000KT 10SM CLR 02/M06 A2986 RMK AO2
KBDU 180635Z AUTO 00000KT 10SM CLR 02/M06 A2986 RMK AO2
KBDU 180615Z AUTO 22004KT 10SM CLR 02/M05 A2986 RMK AO2
KBDU 180555Z AUTO 20004KT 10SM CLR 02/M05 A2987 RMK AO2
KBDU 180535Z AUTO 00000KT 10SM CLR 02/M06 A2987 RMK AO2
KBDU 180515Z AUTO 00000KT 10SM CLR 03/M05 A2987 RMK AO2
KBDU 180455Z AUTO 00000KT 10SM CLR 03/M05 A2987 RMK AO2
KBDU 180435Z AUTO 19003KT 10SM CLR 03/M06 A2987 RMK AO2
KBDU 180415Z AUTO 20004KT 10SM CLR 03/M05 A2988 RMK AO2
KBDU 180355Z AUTO 16003KT 10SM CLR 03/M05 A2988 RMK AO2
KBDU 180335Z AUTO 00000KT 10SM CLR 05/M07 A2988 RMK AO2
KBDU 180315Z AUTO 00000KT 10SM CLR 05/M08 A2989 RMK AO2
KBDU 180255Z AUTO 32003KT 10SM CLR 05/M08 A2989 RMK AO2
KBDU 180235Z AUTO 33003KT 10SM CLR 05/M07 A2989 RMK AO2
KBDU 180215Z AUTO 32003KT 10SM CLR 04/M05 A2988 RMK AO2
KBDU 180155Z AUTO 35003KT 10SM CLR 05/M05 A2988 RMK AO2
KBDU 180135Z AUTO 01004KT 10SM CLR 03/M05 A2987 RMK AO2
KBDU 180115Z AUTO 00000KT 10SM CLR 05/M06 A2987 RMK AO2
KBDU 180055Z AUTO 09003KT 10SM CLR 05/M05 A2987 RMK AO2
KBDU 180035Z AUTO 00000KT 10SM CLR 07/M06 A2987 RMK AO2
KBDU 180015Z AUTO 00000KT 10SM CLR 07/M06 A2987 RMK AO2
KBDU 172355Z AUTO 00000KT 10SM CLR 08/M07 A2987 RMK AO2
KBDU 172335Z AUTO 00000KT 10SM CLR 07/M06 A2987 RMK AO2
KBDU 172315Z AUTO 00000KT 10SM CLR 07/M06 A2987 RMK AO2
KBDU 172255Z AUTO 00000KT 10SM CLR 06/M05 A2988 RMK AO2
KBDU 172235Z AUTO 00000KT 10SM CLR 07/M05 A2989 RMK AO2
KBDU 172215Z AUTO 00000KT 10SM CLR 08/M07 A2989 RMK AO2
KBDU 172155Z AUTO 00000KT 10SM CLR 07/M06 A2989 RMK AO2
KBDU 172135Z AUTO 00000KT 10SM CLR 07/M06 A2989 RMK AO2
KBDU 172115Z AUTO 06003KT 10SM CLR 07/M06 A2989 RMK AO2
KBDU 172055Z AUTO 00000KT 10SM CLR 08/M07 A2988 RMK AO2
KBDU 172035Z AUTO 00000KT 10SM CLR 08/M06 A2989 RMK AO2
KBDU 172015Z AUTO 00000KT 10SM CLR 08/M06 A2988 RMK AO2
KBDU 171955Z AUTO 00000KT 10SM CLR 07/M06 A2991 RMK AO2
KBDU 171935Z AUTO 36003KT 10SM CLR 07/M06 A2991 RMK AO2
KBDU 171915Z AUTO 36005KT 10SM CLR 07/M05 A2991 RMK AO2
KBDU 171855Z AUTO 04004KT 10SM CLR 08/M04 A2993 RMK AO2
KBDU 171835Z AUTO 00000KT 10SM CLR 08/M05 A2993 RMK AO2
KBDU 171815Z AUTO 33003KT 10SM CLR 07/M03 A2994 RMK AO2
KBDU 171755Z AUTO 00000KT 10SM CLR 08/M06 A2994 RMK AO2
KBDU 171735Z AUTO 00000KT 10SM CLR 06/M07 A2994 RMK AO2
KBDU 171715Z AUTO 00000KT 10SM CLR 05/M07 A2994 RMK AO2
KBDU 171655Z AUTO 09004KT 10SM CLR 05/M07 A2994 RMK AO2
KBDU 171635Z AUTO 00000KT 10SM CLR 02/M06 A2994 RMK AO2
KBDU 171615Z AUTO 06005KT 10SM CLR 04/M07 A2993 RMK AO2
KBDU 171555Z AUTO 00000KT 10SM CLR 08/M10 A2992 RMK AO2
KBDU 171535Z AUTO 13003KT 10SM CLR 08/M10 A2993 RMK AO2
KBDU 171515Z AUTO 10003KT 10SM CLR 02/M09 A2992 RMK AO2
KBDU 171455Z AUTO 12005KT 10SM CLR 00/M08 A2991 RMK AO2
KBDU 171435Z AUTO 12003KT 10SM CLR M02/M07 A2992 RMK AO2
KBDU 171415Z AUTO 19003KT 10SM CLR M01/M07 A2993 RMK AO2
KBDU 171355Z AUTO 25004KT 10SM CLR M02/M07 A2993 RMK AO2
KBDU 171335Z AUTO 23005KT 10SM CLR M02/M07 A2993 RMK AO2
KBDU 171315Z AUTO 00000KT 10SM CLR M02/M07 A2994 RMK AO2
KBDU 171255Z AUTO 00000KT 10SM CLR M02/M07 A2993 RMK AO2
KBDU 171235Z AUTO 02004KT 10SM CLR M02/M07 A2993 RMK AO2
KBDU 171215Z AUTO 36003KT 10SM CLR M02/M07 A2994 RMK AO2
KBDU 171155Z AUTO 00000KT 10SM CLR M02/M07 A2994 RMK AO2
KBDU 171135Z AUTO 20005KT 10SM CLR M02/M07 A2993 RMK AO2
KBDU 171115Z AUTO 00000KT 10SM CLR M02/M07 A2993 RMK AO2
KBDU 171055Z AUTO 00000KT 10SM CLR M02/M07 A2995 RMK AO2
KBDU 171035Z AUTO 00000KT 10SM CLR M02/M07 A2995 RMK AO2
KBDU 171015Z AUTO 34004KT 10SM CLR M02/M07 A2996 RMK AO2
KBDU 170955Z AUTO 00000KT 10SM CLR M02/M07 A2997 RMK AO2
KBDU 170935Z AUTO 27003KT 10SM CLR M03/M07 A2997 RMK AO2
KBDU 170915Z AUTO 14003KT 10SM CLR M02/M07 A2998 RMK AO2
KBDU 170855Z AUTO 00000KT 10SM CLR M02/M07 A2999 RMK AO2
KBDU 170835Z AUTO 00000KT 10SM CLR M02/M07 A3000 RMK AO2
KBDU 170815Z AUTO 20003KT 10SM CLR M01/M07 A3001 RMK AO2
KBDU 170755Z AUTO 24003KT 10SM CLR M01/M07 A3002 RMK AO2
KBDU 170735Z AUTO 00000KT 10SM CLR M01/M07 A3003 RMK AO2
KBDU 170715Z AUTO 00000KT 10SM CLR M01/M07 A3004 RMK AO2
KBDU 170655Z AUTO 00000KT 10SM CLR M01/M07 A3005 RMK AO2
KBDU 170635Z AUTO 00000KT 10SM CLR 00/M07 A3006 RMK AO2
KBDU 170615Z AUTO 00000KT 10SM CLR 00/M07 A3007 RMK AO2
KBDU 170555Z AUTO 00000KT 10SM CLR M02/M07 A3007 RMK AO2
KBDU 170535Z AUTO 34003KT 10SM CLR M02/M07 A3008 RMK AO2
KBDU 170515Z AUTO 00000KT 10SM CLR M01/M07 A3009 RMK AO2
KBDU 170455Z AUTO 00000KT 10SM CLR M01/M07 A3009 RMK AO2
KBDU 170435Z AUTO 00000KT 10SM CLR 00/M07 A3009 RMK AO2
KBDU 170415Z AUTO 23003KT 10SM CLR 00/M07 A3010 RMK AO2
KBDU 170355Z AUTO 00000KT 10SM CLR 00/M07 A3011 RMK AO2
KBDU 170335Z AUTO 18003KT 10SM CLR 00/M07 A3011 RMK AO2
KBDU 170315Z AUTO 22003KT 10SM CLR 00/M07 A3012 RMK AO2
KBDU 170255Z AUTO 19003KT 10SM CLR 00/M07 A3013 RMK AO2
KBDU 170235Z AUTO 00000KT 10SM CLR 01/M07 A3013 RMK AO2
KBDU 170215Z AUTO 00000KT 10SM CLR 01/M07 A3014 RMK AO2
KBDU 170155Z AUTO 00000KT 10SM CLR 02/M07 A3014 RMK AO2
KBDU 170135Z AUTO 00000KT 10SM CLR 01/M07 A3014 RMK AO2
KBDU 170115Z AUTO 00000KT 10SM CLR 03/M08 A3014 RMK AO2
KBDU 170055Z AUTO 00000KT 10SM CLR 03/M08 A3014 RMK AO2
KBDU 170035Z AUTO 00000KT 10SM CLR 03/M07 A3014 RMK AO2
KBDU 170015Z AUTO 00000KT 10SM CLR 04/M08 A3013 RMK AO2
KBDU 162355Z AUTO 05003KT 10SM CLR 04/M08 A3012 RMK AO2
KBDU 162335Z AUTO 06004KT 10SM CLR 05/M08 A3012 RMK AO2
KBDU 162315Z AUTO 06006KT 10SM CLR 06/M07 A3013 RMK AO2
KBDU 162255Z AUTO 00000KT 10SM CLR 06/M07 A3012 RMK AO2
KBDU 162235Z AUTO 02007KT 10SM CLR 07/M08 A3011 RMK AO2
KBDU 162215Z AUTO 03007KT 10SM CLR 07/M08 A3010 RMK AO2